Time;durP1;ratioP1;P1;durP2;ratioP2;P2;SDS_P1;SDS_P2;PMS_P1;PMS_P2;Temp;Humidity;BMP_temperature;BMP_pressure;BME280_temperature;BME280_humidity;BME280_pressure;Samples;Min_cycle;Max_cycle;Signal;HPM_P1;HPM_P2
2022/08/16 00:00:33;;;;;;;10.30;6.13;;;21.70;99.90;;;;;;5023426;28;20242;-80
2022/08/16 00:03:00;;;;;;;7.45;5.88;;;21.60;99.90;;;;;;5024877;28;20163;-80
2022/08/16 00:05:27;;;;;;;9.38;5.78;;;21.60;99.90;;;;;;5024594;28;20194;-81
2022/08/16 00:07:54;;;;;;;7.45;5.47;;;21.60;99.90;;;;;;5024191;28;20242;-81
2022/08/16 00:10:22;;;;;;;9.00;5.70;;;21.60;99.90;;;;;;5022962;28;20163;-81
2022/08/16 00:12:49;;;;;;;8.23;5.50;;;21.60;99.90;;;;;;5023556;28;20178;-81
2022/08/16 00:15:30;;;;;;;12.45;5.63;;;21.60;99.90;;;;;;5024755;28;20578;-84
2022/08/16 00:17:56;;;;;;;6.47;5.45;;;21.60;99.90;;;;;;5020255;28;20201;-83
2022/08/16 00:20:22;;;;;;;8.20;5.55;;;21.70;99.90;;;;;;5027073;28;20167;-84
2022/08/16 00:22:49;;;;;;;8.05;5.50;;;21.60;99.90;;;;;;5030167;28;20175;-84
2022/08/16 00:25:17;;;;;;;6.75;5.35;;;21.60;99.90;;;;;;5026932;28;20209;-83
2022/08/16 00:27:43;;;;;;;8.13;5.55;;;21.60;99.90;;;;;;5016660;28;20205;-80
2022/08/16 00:30:12;;;;;;;9.18;5.85;;;21.50;99.90;;;;;;5016114;28;20167;-83
2022/08/16 00:32:40;;;;;;;13.48;6.13;;;21.40;99.90;;;;;;5016412;28;20167;-80
2022/08/16 00:35:09;;;;;;;12.32;6.50;;;21.40;99.90;;;;;;5015857;28;20262;-83
2022/08/16 00:37:35;;;;;;;7.10;6.32;;;21.20;99.90;;;;;;5017786;28;20182;-82
2022/08/16 00:40:01;;;;;;;10.35;6.47;;;21.20;99.90;;;;;;5015674;28;20205;-81
2022/08/16 00:42:28;;;;;;;9.13;7.32;;;21.10;99.90;;;;;;5015246;28;20166;-82
2022/08/16 00:44:57;;;;;;;13.45;8.00;;;21.10;99.90;;;;;;5014763;28;20643;-82
2022/08/16 00:47:25;;;;;;;13.13;7.35;;;21.20;99.90;;;;;;5015576;28;20169;-83
2022/08/16 00:49:51;;;;;;;14.32;8.23;;;21.20;99.90;;;;;;5016921;28;20264;-82
2022/08/16 00:52:17;;;;;;;16.58;8.20;;;21.30;99.90;;;;;;5015339;28;20181;-83
2022/08/16 00:54:43;;;;;;;10.70;7.95;;;21.20;99.90;;;;;;5016169;28;20210;-82
2022/08/16 00:57:09;;;;;;;12.85;8.32;;;21.10;99.90;;;;;;5017293;28;20175;-82
2022/08/16 00:59:37;;;;;;;13.18;8.30;;;21.10;99.90;;;;;;5019099;28;20256;-82
2022/08/16 01:02:06;;;;;;;17.17;8.60;;;21.10;99.90;;;;;;5017590;28;20166;-82
2022/08/16 01:04:33;;;;;;;10.07;7.68;;;21.10;99.90;;;;;;5018892;28;20174;-84
2022/08/16 01:07:01;;;;;;;11.82;7.63;;;21.10;99.90;;;;;;5022427;28;20278;-84
2022/08/16 01:09:27;;;;;;;15.95;7.72;;;21.10;99.90;;;;;;5029736;28;20205;-84
2022/08/16 01:11:54;;;;;;;12.18;7.68;;;21.20;99.90;;;;;;5028598;28;20193;-83
2022/08/16 01:14:32;;;;;;;12.77;8.50;;;21.10;99.90;;;;;;5021028;28;20173;-84
2022/08/16 01:17:00;;;;;;;12.63;8.82;;;21.00;99.90;;;;;;5024461;28;20536;-83
2022/08/16 01:19:44;;;;;;;12.43;7.85;;;21.10;99.90;;;;;;5023406;28;20202;-83
2022/08/16 01:22:21;;;;;;;11.35;7.90;;;21.20;99.90;;;;;;5037166;28;20613;-82
2022/08/16 01:24:54;;;;;;;12.70;8.05;;;21.00;99.90;;;;;;5023949;28;20178;-84
2022/08/16 01:27:25;;;;;;;14.50;9.30;;;20.90;99.90;;;;;;5025167;28;20646;-83
2022/08/16 01:30:07;;;;;;;14.57;9.65;;;20.90;99.90;;;;;;5025016;28;21615;-83
2022/08/16 01:32:37;;;;;;;14.50;8.27;;;21.00;99.90;;;;;;5022657;28;20181;-85
2022/08/16 01:35:20;;;;;;;12.93;7.72;;;20.90;99.90;;;;;;5023148;28;20190;-84
2022/08/16 01:37:50;;;;;;;9.57;7.63;;;21.00;99.90;;;;;;5039041;28;20186;-84
2022/08/16 01:40:18;;;;;;;10.75;8.25;;;21.10;99.90;;;;;;5024493;28;20193;-84
2022/08/16 01:42:47;;;;;;;12.75;8.63;;;21.10;99.90;;;;;;5023465;28;20210;-83
2022/08/16 01:45:12;;;;;;;13.25;8.50;;;20.90;99.90;;;;;;5026337;28;20229;-83
2022/08/16 01:47:39;;;;;;;10.40;8.68;;;20.90;99.90;;;;;;5024048;28;20171;-83
2022/08/16 01:50:06;;;;;;;26.10;9.32;;;21.00;99.90;;;;;;5025203;28;20186;-84
2022/08/16 01:52:33;;;;;;;13.95;9.45;;;21.10;99.90;;;;;;5024752;28;20175;-84
2022/08/16 01:55:00;;;;;;;14.15;8.82;;;21.00;99.90;;;;;;5024081;28;20206;-83
2022/08/16 01:57:27;;;;;;;14.20;8.57;;;20.90;99.90;;;;;;5025541;28;20185;-84
2022/08/16 01:59:52;;;;;;;13.15;8.80;;;21.00;99.90;;;;;;5027607;28;20191;-84
2022/08/16 02:02:18;;;;;;;11.85;7.82;;;21.00;99.90;;;;;;5026949;28;20167;-84
2022/08/16 02:04:44;;;;;;;13.98;8.52;;;20.90;99.90;;;;;;5026641;28;20234;-83
2022/08/16 02:07:12;;;;;;;9.02;7.55;;;20.90;99.90;;;;;;5025865;28;20250;-83
2022/08/16 02:09:39;;;;;;;13.05;7.68;;;20.80;99.90;;;;;;5026619;28;20185;-83
2022/08/16 02:12:07;;;;;;;10.85;7.70;;;20.90;99.90;;;;;;5026424;28;20195;-83
2022/08/16 02:14:34;;;;;;;10.25;7.97;;;20.80;99.90;;;;;;5025327;28;20659;-83
2022/08/16 02:17:04;;;;;;;15.18;8.43;;;20.70;99.90;;;;;;5025398;28;20221;-83
2022/08/16 02:19:32;;;;;;;10.90;7.65;;;20.70;99.90;;;;;;5026063;28;20312;-84
2022/08/16 02:22:00;;;;;;;19.77;8.55;;;20.70;99.90;;;;;;5026516;28;20517;-83
2022/08/16 02:24:26;;;;;;;11.70;8.43;;;20.50;99.90;;;;;;5028306;28;20174;-83
2022/08/16 02:26:52;;;;;;;13.52;8.80;;;20.60;99.90;;;;;;5028113;28;20241;-84
2022/08/16 02:29:19;;;;;;;14.40;8.40;;;20.60;99.90;;;;;;5028523;28;20693;-83
2022/08/16 02:31:46;;;;;;;10.27;8.25;;;20.60;99.90;;;;;;5028327;28;20186;-83
2022/08/16 02:34:12;;;;;;;11.85;8.70;;;20.50;99.90;;;;;;5027716;28;20178;-83
2022/08/16 02:36:38;;;;;;;13.13;8.93;;;20.60;99.90;;;;;;5028214;28;20194;-83
2022/08/16 02:39:06;;;;;;;12.35;10.02;;;20.60;99.90;;;;;;5027476;28;20193;-82
2022/08/16 02:41:32;;;;;;;12.15;9.35;;;20.50;99.90;;;;;;5026802;28;20585;-83
2022/08/16 02:43:58;;;;;;;13.75;9.63;;;20.60;99.90;;;;;;5029187;28;20167;-83
2022/08/16 02:46:25;;;;;;;18.10;10.30;;;20.60;99.90;;;;;;5031364;28;20191;-83
2022/08/16 02:48:50;;;;;;;18.05;10.68;;;20.50;99.90;;;;;;5032875;28;20204;-84
2022/08/16 02:51:17;;;;;;;13.73;10.82;;;20.40;99.90;;;;;;5034026;28;20174;-84
2022/08/16 02:53:45;;;;;;;14.05;10.50;;;20.40;99.90;;;;;;5033689;28;20731;-83
2022/08/16 02:56:13;;;;;;;14.85;10.77;;;20.40;99.90;;;;;;5033286;28;20748;-83
2022/08/16 02:58:40;;;;;;;14.52;10.07;;;20.50;99.90;;;;;;5034482;28;20199;-84
2022/08/16 03:01:09;;;;;;;14.63;9.97;;;20.40;99.90;;;;;;5034015;28;20166;-85
2022/08/16 03:03:35;;;;;;;15.45;10.52;;;20.40;99.90;;;;;;5034937;28;20171;-84
2022/08/16 03:06:02;;;;;;;14.03;10.17;;;20.50;99.90;;;;;;5034711;28;20241;-84
2022/08/16 03:08:27;;;;;;;14.17;9.60;;;20.50;99.90;;;;;;5033767;28;20177;-83
2022/08/16 03:10:53;;;;;;;19.07;10.20;;;20.50;99.90;;;;;;5034309;28;20179;-83
2022/08/16 03:13:19;;;;;;;14.97;10.17;;;20.60;99.90;;;;;;5035443;28;20183;-83
2022/08/16 03:15:46;;;;;;;13.77;10.40;;;20.50;99.90;;;;;;5023221;28;20218;-83
2022/08/16 03:18:12;;;;;;;14.40;10.03;;;20.50;99.90;;;;;;5027691;28;20213;-83
2022/08/16 03:20:38;;;;;;;19.07;9.97;;;20.50;99.90;;;;;;5023123;28;20182;-83
2022/08/16 03:23:04;;;;;;;15.52;10.25;;;20.40;99.90;;;;;;5022855;28;20175;-83
2022/08/16 03:25:30;;;;;;;16.80;10.00;;;20.40;99.90;;;;;;5022882;28;20229;-82
2022/08/16 03:27:56;;;;;;;18.43;9.60;;;20.50;99.90;;;;;;5021664;28;20171;-83
2022/08/16 03:30:27;;;;;;;14.67;9.93;;;20.60;99.90;;;;;;5022979;28;20178;-83
2022/08/16 03:32:53;;;;;;;16.60;9.30;;;20.50;99.90;;;;;;5021225;28;20170;-83
2022/08/16 03:35:22;;;;;;;13.13;9.93;;;20.40;99.90;;;;;;5021761;28;20233;-84
2022/08/16 03:37:51;;;;;;;17.33;9.43;;;20.40;99.90;;;;;;5022060;28;20261;-82
2022/08/16 03:40:17;;;;;;;14.10;9.50;;;20.30;99.90;;;;;;5022450;28;20701;-82
2022/08/16 03:42:43;;;;;;;15.37;9.20;;;20.20;99.90;;;;;;5020269;28;20213;-83
2022/08/16 03:45:09;;;;;;;15.27;9.40;;;20.30;99.90;;;;;;5021021;28;20190;-83
2022/08/16 03:47:35;;;;;;;13.27;9.83;;;20.20;99.90;;;;;;5020491;28;20614;-83
2022/08/16 03:50:02;;;;;;;12.37;9.47;;;20.30;99.90;;;;;;5021692;28;20190;-84
2022/08/16 03:52:28;;;;;;;12.90;9.33;;;20.30;99.90;;;;;;5018012;28;20672;-83
2022/08/16 03:54:53;;;;;;;12.98;9.23;;;20.20;99.90;;;;;;5020168;28;20178;-82
2022/08/16 03:57:19;;;;;;;11.93;9.37;;;20.30;99.90;;;;;;5019664;28;20248;-83
2022/08/16 03:59:45;;;;;;;16.03;9.43;;;20.10;99.90;;;;;;5020510;28;20186;-82
2022/08/16 04:02:11;;;;;;;12.97;8.57;;;20.00;99.90;;;;;;5020048;28;20210;-82
2022/08/16 04:04:37;;;;;;;10.07;8.87;;;20.00;99.90;;;;;;5018816;28;20293;-83
2022/08/16 04:07:05;;;;;;;11.47;8.23;;;20.00;99.90;;;;;;5019032;28;20177;-83
2022/08/16 04:09:32;;;;;;;11.60;8.70;;;20.00;99.90;;;;;;5020787;28;20170;-83
2022/08/16 04:11:58;;;;;;;14.00;9.20;;;20.10;99.90;;;;;;5021962;28;20171;-83
2022/08/16 04:14:23;;;;;;;11.57;8.87;;;20.10;99.90;;;;;;5016361;28;20183;-83
2022/08/16 04:16:49;;;;;;;14.83;8.43;;;20.10;99.90;;;;;;5020704;28;20221;-82
2022/08/16 04:19:15;;;;;;;12.07;8.97;;;20.10;99.90;;;;;;5023267;28;20198;-83
2022/08/16 04:21:41;;;;;;;15.47;8.50;;;20.00;99.90;;;;;;5021644;28;20658;-82
2022/08/16 04:24:06;;;;;;;9.57;8.17;;;20.00;99.90;;;;;;5020210;28;20182;-82
2022/08/16 04:26:32;;;;;;;9.23;8.17;;;20.10;99.90;;;;;;5018365;28;20183;-82
2022/08/16 04:29:00;;;;;;;12.13;8.93;;;19.90;99.90;;;;;;5018572;28;20170;-83
2022/08/16 04:31:25;;;;;;;11.90;8.53;;;20.00;99.90;;;;;;5018365;28;20232;-82
2022/08/16 04:33:52;;;;;;;14.53;8.33;;;19.90;99.90;;;;;;5019096;28;20178;-83
2022/08/16 04:36:18;;;;;;;12.30;8.50;;;20.00;99.90;;;;;;5019062;28;20198;-83
2022/08/16 04:38:44;;;;;;;16.80;8.67;;;19.80;99.90;;;;;;5017177;28;20261;-82
2022/08/16 04:41:09;;;;;;;15.50;8.87;;;19.80;99.90;;;;;;5018551;28;20190;-82
2022/08/16 04:43:37;;;;;;;12.93;7.97;;;19.80;99.90;;;;;;5020690;28;20202;-82
2022/08/16 04:46:04;;;;;;;14.03;8.87;;;19.70;99.90;;;;;;5018285;28;20190;-82
2022/08/16 04:48:32;;;;;;;10.70;7.57;;;19.70;99.90;;;;;;5020251;28;20175;-83
2022/08/16 04:50:58;;;;;;;10.60;8.40;;;19.80;99.90;;;;;;5015390;28;20175;-83
2022/08/16 04:53:24;;;;;;;16.33;8.33;;;19.80;99.90;;;;;;5016417;28;20257;-84
2022/08/16 04:55:50;;;;;;;17.47;8.23;;;19.90;99.90;;;;;;5016797;28;20237;-82
2022/08/16 04:58:16;;;;;;;13.50;8.30;;;19.90;99.90;;;;;;5019841;28;20206;-83
2022/08/16 05:00:41;;;;;;;11.47;8.83;;;19.80;99.90;;;;;;5018687;28;20170;-82
2022/08/16 05:03:10;;;;;;;11.07;7.80;;;19.80;99.90;;;;;;5018305;28;20167;-84
2022/08/16 05:05:38;;;;;;;12.33;8.13;;;19.80;99.90;;;;;;5021514;28;20659;-82
2022/08/16 05:08:04;;;;;;;10.57;7.67;;;19.80;99.90;;;;;;5022164;28;20289;-82
2022/08/16 05:10:31;;;;;;;15.63;7.57;;;19.80;99.90;;;;;;5022708;28;20221;-82
2022/08/16 05:13:01;;;;;;;12.57;7.90;;;20.00;99.90;;;;;;5022524;28;20178;-83
2022/08/16 05:15:27;;;;;;;11.03;7.93;;;20.00;99.90;;;;;;5024050;28;20232;-83
2022/08/16 05:17:53;;;;;;;16.73;8.27;;;20.00;99.90;;;;;;5023708;28;20194;-84
2022/08/16 05:20:19;;;;;;;13.53;7.87;;;20.00;99.90;;;;;;5024248;28;20181;-84
2022/08/16 05:22:45;;;;;;;10.60;7.67;;;20.00;99.90;;;;;;5022409;28;20209;-82
2022/08/16 05:25:12;;;;;;;11.67;7.90;;;20.00;99.90;;;;;;5025210;28;20727;-82
2022/08/16 05:27:39;;;;;;;12.47;7.70;;;20.00;99.90;;;;;;5018156;28;20273;-83
2022/08/16 05:30:06;;;;;;;12.07;7.93;;;20.10;99.90;;;;;;5018682;28;20198;-82
2022/08/16 05:32:33;;;;;;;10.97;8.17;;;20.10;99.90;;;;;;5022047;28;20175;-83
2022/08/16 05:34:59;;;;;;;11.80;7.57;;;20.20;99.90;;;;;;5022025;28;20198;-83
2022/08/16 05:37:25;;;;;;;11.97;7.53;;;20.30;99.90;;;;;;5022701;28;20177;-83
2022/08/16 05:39:51;;;;;;;11.57;7.93;;;20.40;99.90;;;;;;5022851;28;20201;-83
2022/08/16 05:42:17;;;;;;;9.60;7.43;;;20.40;99.90;;;;;;5022519;28;20179;-83
2022/08/16 05:44:42;;;;;;;12.02;7.20;;;20.60;99.90;;;;;;5022042;28;20570;-82
2022/08/16 05:47:08;;;;;;;11.17;7.27;;;20.80;99.90;;;;;;5021917;28;20181;-83
2022/08/16 05:49:34;;;;;;;13.43;7.20;;;20.90;99.90;;;;;;5025312;28;20257;-82
2022/08/16 05:52:00;;;;;;;10.95;7.10;;;21.10;99.90;;;;;;5019916;28;20175;-82
2022/08/16 05:54:27;;;;;;;9.30;6.60;;;21.20;99.90;;;;;;5018251;28;20178;-81
2022/08/16 05:56:56;;;;;;;7.53;6.20;;;21.30;99.90;;;;;;5017434;28;20203;-81
2022/08/16 05:59:23;;;;;;;13.30;7.13;;;21.40;99.90;;;;;;5017154;28;20194;-81
2022/08/16 06:01:50;;;;;;;11.80;6.90;;;21.50;99.90;;;;;;5017185;28;20171;-81
2022/08/16 06:04:18;;;;;;;11.35;7.13;;;21.50;99.90;;;;;;5017883;28;20706;-81
2022/08/16 06:06:44;;;;;;;11.45;6.55;;;21.70;99.90;;;;;;5016770;28;20198;-80
2022/08/16 06:09:15;;;;;;;9.18;6.38;;;21.70;99.90;;;;;;5033333;23;20711;-82
2022/08/16 06:11:42;;;;;;;10.20;6.47;;;21.50;99.90;;;;;;5021777;28;20181;-81
2022/08/16 06:14:08;;;;;;;8.25;6.43;;;21.40;99.90;;;;;;5020200;28;20192;-81
2022/08/16 06:16:34;;;;;;;9.70;5.97;;;21.40;99.90;;;;;;5020614;28;20194;-80
2022/08/16 06:18:59;;;;;;;10.10;6.18;;;21.10;99.90;;;;;;5021251;28;20213;-81
2022/08/16 06:21:25;;;;;;;10.52;6.85;;;21.20;99.90;;;;;;5021828;28;20177;-81
2022/08/16 06:23:51;;;;;;;9.88;6.78;;;21.10;99.90;;;;;;5020350;28;20586;-82
2022/08/16 06:26:17;;;;;;;8.43;6.55;;;21.20;99.90;;;;;;5020370;28;20190;-81
2022/08/16 06:28:44;;;;;;;12.95;6.43;;;21.20;99.90;;;;;;5019769;28;20542;-82
2022/08/16 06:31:12;;;;;;;8.43;6.30;;;21.20;99.90;;;;;;5019438;28;20178;-81
2022/08/16 06:33:40;;;;;;;9.70;6.25;;;21.40;99.90;;;;;;5020512;28;20174;-82
2022/08/16 06:36:07;;;;;;;11.95;5.85;;;22.20;99.90;;;;;;5020849;28;20186;-82
2022/08/16 06:38:34;;;;;;;7.20;5.60;;;22.40;99.90;;;;;;5020793;28;20722;-81
2022/08/16 06:41:04;;;;;;;10.45;6.35;;;22.70;99.90;;;;;;5020156;28;20661;-82
2022/08/16 06:43:31;;;;;;;8.23;5.30;;;23.10;99.90;;;;;;5018859;28;20178;-80
2022/08/16 06:45:57;;;;;;;8.48;5.60;;;23.40;99.90;;;;;;5019521;28;20732;-84
2022/08/16 06:48:23;;;;;;;9.55;4.95;;;23.50;99.90;;;;;;5020537;28;20185;-82
2022/08/16 06:50:51;;;;;;;10.10;5.97;;;23.90;99.90;;;;;;5019140;28;20173;-82
2022/08/16 06:53:17;;;;;;;10.85;5.38;;;24.00;99.90;;;;;;5019988;28;20544;-81
2022/08/16 06:55:43;;;;;;;6.68;5.45;;;24.10;99.90;;;;;;5020381;28;20292;-82
2022/08/16 06:58:09;;;;;;;9.15;5.13;;;24.20;99.90;;;;;;5021510;28;20642;-83
2022/08/16 07:00:37;;;;;;;12.70;5.40;;;24.50;99.90;;;;;;5023478;28;20194;-80
2022/08/16 07:03:03;;;;;;;8.20;5.18;;;24.70;99.90;;;;;;5023778;28;20224;-82
2022/08/16 07:05:30;;;;;;;6.43;5.25;;;24.90;99.90;;;;;;5026986;28;20186;-83
2022/08/16 07:07:56;;;;;;;11.57;5.72;;;25.50;99.90;;;;;;5021714;28;20213;-80
2022/08/16 07:10:23;;;;;;;8.43;5.90;;;25.20;99.90;;;;;;5018227;28;20178;-80
2022/08/16 07:12:49;;;;;;;11.02;5.43;;;25.30;99.90;;;;;;5017039;28;20205;-81
2022/08/16 07:15:16;;;;;;;7.97;5.65;;;25.20;99.90;;;;;;5016998;28;20197;-80
2022/08/16 07:17:43;;;;;;;6.70;5.90;;;25.40;99.90;;;;;;5017686;28;20181;-81
2022/08/16 07:20:11;;;;;;;8.75;5.82;;;25.40;99.90;;;;;;5016669;28;20194;-80
2022/08/16 07:22:41;;;;;;;7.57;6.15;;;25.40;99.90;;;;;;5025751;28;20166;-82
2022/08/16 07:25:09;;;;;;;10.88;5.40;;;25.60;99.90;;;;;;5020208;28;20217;-84
2022/08/16 07:27:35;;;;;;;7.80;5.18;;;26.00;99.90;;;;;;5021073;28;20216;-82
2022/08/16 07:30:02;;;;;;;9.20;5.97;;;25.70;99.90;;;;;;5023113;28;20178;-81
2022/08/16 07:32:27;;;;;;;11.43;5.97;;;26.60;99.90;;;;;;5023716;28;20186;-82
2022/08/16 07:34:53;;;;;;;7.82;5.28;;;26.50;99.90;;;;;;5040890;28;20166;-84
2022/08/16 07:37:19;;;;;;;9.18;5.82;;;26.40;99.90;;;;;;5024278;28;20212;-79
2022/08/16 07:39:44;;;;;;;6.68;5.63;;;26.80;99.90;;;;;;5024708;28;20204;-83
2022/08/16 07:42:10;;;;;;;11.02;5.15;;;26.60;99.90;;;;;;5036290;28;20170;-79
2022/08/16 07:44:36;;;;;;;6.90;5.25;;;27.10;99.90;;;;;;5034073;28;20189;-82
2022/08/16 07:47:02;;;;;;;10.80;5.50;;;27.40;99.90;;;;;;5032022;28;20177;-79
2022/08/16 07:49:28;;;;;;;10.35;5.53;;;27.40;99.90;;;;;;5039095;28;20217;-82
2022/08/16 07:51:53;;;;;;;7.57;5.63;;;27.40;99.90;;;;;;5021908;28;20204;-80
2022/08/16 07:54:19;;;;;;;8.57;5.45;;;27.70;99.90;;;;;;5020558;28;20178;-80
2022/08/16 07:56:45;;;;;;;9.20;5.25;;;27.50;99.80;;;;;;5021203;28;20197;-81
2022/08/16 07:59:11;;;;;;;6.38;5.07;;;27.60;99.90;;;;;;5020802;28;20209;-81
2022/08/16 08:01:37;;;;;;;7.85;5.15;;;27.70;99.90;;;;;;5022038;28;20224;-81
2022/08/16 08:04:03;;;;;;;6.93;5.07;;;28.20;99.90;;;;;;5022124;28;20224;-82
2022/08/16 08:06:31;;;;;;;7.45;4.78;;;28.70;98.50;;;;;;5021877;28;20190;-82
2022/08/16 08:08:58;;;;;;;7.25;5.43;;;28.80;99.30;;;;;;5021650;28;20193;-83
2022/08/16 08:11:24;;;;;;;8.95;4.78;;;29.20;97.80;;;;;;5020671;28;20202;-82
2022/08/16 08:13:52;;;;;;;6.80;4.72;;;28.90;98.40;;;;;;5021385;28;20177;-80
2022/08/16 08:16:20;;;;;;;10.60;5.55;;;29.00;98.30;;;;;;5021639;28;20198;-80
2022/08/16 08:18:46;;;;;;;10.48;4.80;;;29.50;97.10;;;;;;5021873;28;20221;-83
2022/08/16 08:21:12;;;;;;;14.75;5.28;;;29.30;97.10;;;;;;5020847;28;20217;-81
2022/08/16 08:23:37;;;;;;;8.55;5.35;;;29.80;96.20;;;;;;5021508;28;20174;-82
2022/08/16 08:26:05;;;;;;;7.80;4.80;;;29.70;96.00;;;;;;5021219;28;20285;-80
2022/08/16 08:28:31;;;;;;;8.38;4.80;;;29.60;95.90;;;;;;5020264;28;20178;-82
2022/08/16 08:31:01;;;;;;;11.00;4.97;;;29.00;96.20;;;;;;5020662;28;20180;-79
2022/08/16 08:33:27;;;;;;;5.82;4.60;;;29.20;96.60;;;;;;5020993;28;20216;-82
2022/08/16 08:35:56;;;;;;;6.57;4.85;;;29.00;96.20;;;;;;5020262;28;20202;-81
2022/08/16 08:38:22;;;;;;;9.85;4.90;;;29.40;95.80;;;;;;5020217;28;20197;-81
2022/08/16 08:40:48;;;;;;;7.53;5.30;;;29.80;95.00;;;;;;5020795;28;20174;-81
2022/08/16 08:43:13;;;;;;;5.63;4.60;;;29.70;95.10;;;;;;5021742;28;20213;-81
2022/08/16 08:45:40;;;;;;;7.35;4.45;;;29.50;94.70;;;;;;5021684;28;20244;-82
2022/08/16 08:48:06;;;;;;;8.23;4.22;;;29.60;95.90;;;;;;5022258;28;20257;-83
2022/08/16 08:50:31;;;;;;;8.98;4.63;;;29.70;95.20;;;;;;5021966;28;20202;-79
2022/08/16 08:52:57;;;;;;;6.25;4.53;;;29.90;94.40;;;;;;5020621;28;20185;-81
2022/08/16 08:55:23;;;;;;;10.52;4.20;;;29.90;93.70;;;;;;5021479;28;20193;-79
2022/08/16 08:57:50;;;;;;;7.35;4.10;;;29.70;94.40;;;;;;5020372;28;20228;-79
2022/08/16 09:00:19;;;;;;;9.40;3.65;;;29.90;95.10;;;;;;5020474;28;20209;-79
2022/08/16 09:02:45;;;;;;;4.88;4.10;;;30.40;93.50;;;;;;5020679;28;20174;-82
2022/08/16 09:05:13;;;;;;;7.55;3.72;;;30.20;91.90;;;;;;5020377;28;20190;-81
2022/08/16 09:07:38;;;;;;;7.95;3.85;;;30.40;92.80;;;;;;5020208;28;20179;-79
2022/08/16 09:10:07;;;;;;;6.22;3.75;;;30.80;92.10;;;;;;5020520;28;20186;-80
2022/08/16 09:12:34;;;;;;;7.50;3.90;;;30.70;91.20;;;;;;5020841;28;20189;-79
2022/08/16 09:15:00;;;;;;;8.30;4.00;;;30.60;91.80;;;;;;5020532;28;20200;-80
2022/08/16 09:17:27;;;;;;;6.85;3.85;;;30.30;92.20;;;;;;5020117;28;20174;-81
2022/08/16 09:19:56;;;;;;;9.00;4.00;;;30.80;92.70;;;;;;5019579;28;20206;-81
2022/08/16 09:22:24;;;;;;;9.40;4.03;;;31.00;92.00;;;;;;5021159;28;20307;-80
2022/08/16 09:24:50;;;;;;;8.15;4.05;;;31.10;92.00;;;;;;5020029;28;20193;-81
2022/08/16 09:27:16;;;;;;;7.53;4.18;;;30.90;92.60;;;;;;5020532;28;20223;-80
2022/08/16 09:29:43;;;;;;;5.15;4.15;;;30.80;91.80;;;;;;5020134;28;20185;-79
2022/08/16 09:32:09;;;;;;;9.57;4.00;;;30.70;92.40;;;;;;5019884;28;20583;-80
2022/08/16 09:34:34;;;;;;;7.32;4.25;;;31.60;92.60;;;;;;5019248;28;20181;-82
2022/08/16 09:37:00;;;;;;;4.90;4.07;;;31.30;91.40;;;;;;5019375;28;20209;-79
2022/08/16 09:39:26;;;;;;;6.20;4.00;;;31.20;91.40;;;;;;5020221;28;20228;-79
2022/08/16 09:41:57;;;;;;;6.55;4.38;;;31.10;91.10;;;;;;5019500;28;20174;-80
2022/08/16 09:44:25;;;;;;;8.52;4.50;;;31.00;91.00;;;;;;5019572;28;20197;-80
2022/08/16 09:46:52;;;;;;;7.82;3.85;;;31.20;91.40;;;;;;5018579;28;20194;-80
2022/08/16 09:49:19;;;;;;;7.82;4.30;;;31.60;90.90;;;;;;5019226;28;20178;-82
2022/08/16 09:51:45;;;;;;;5.35;4.03;;;31.00;90.40;;;;;;5020842;28;20204;-83
2022/08/16 09:54:12;;;;;;;8.05;4.10;;;31.50;91.00;;;;;;5019410;28;20205;-82
2022/08/16 09:56:40;;;;;;;9.15;4.20;;;31.30;91.40;;;;;;5020272;28;20229;-81
2022/08/16 09:59:08;;;;;;;6.93;4.43;;;31.30;91.30;;;;;;5019138;28;20216;-81
2022/08/16 10:01:35;;;;;;;7.85;4.05;;;32.00;89.70;;;;;;5019019;28;20178;-80
2022/08/16 10:04:01;;;;;;;10.18;4.95;;;31.80;90.70;;;;;;5036658;28;20177;-80
2022/08/16 10:06:28;;;;;;;5.72;4.13;;;31.80;89.00;;;;;;5019730;28;20555;-82
2022/08/16 10:08:53;;;;;;;8.85;4.70;;;31.70;90.60;;;;;;5019222;28;20193;-80
2022/08/16 10:14:04;;;;;;;11.55;4.80;;;31.90;90.30;;;;;;5037997;28;20189;-80
2022/08/16 10:16:30;;;;;;;7.18;4.25;;;32.10;88.10;;;;;;5019821;28;20662;-82
2022/08/16 10:18:56;;;;;;;6.47;4.50;;;32.10;88.40;;;;;;5021465;28;20206;-80
2022/08/16 10:21:22;;;;;;;8.00;4.43;;;32.40;90.00;;;;;;5023333;28;20174;-81
2022/08/16 10:23:48;;;;;;;8.93;4.07;;;32.10;87.70;;;;;;5022500;28;20174;-80
2022/08/16 10:26:14;;;;;;;9.32;4.35;;;32.50;89.00;;;;;;5021346;28;20560;-83
2022/08/16 10:28:39;;;;;;;7.95;4.47;;;32.40;89.10;;;;;;5019558;28;20181;-83
2022/08/16 10:31:07;;;;;;;7.88;4.38;;;32.20;86.50;;;;;;5020389;28;20174;-82
2022/08/16 10:33:33;;;;;;;4.85;3.70;;;31.90;89.20;;;;;;5019822;28;20650;-83
2022/08/16 10:36:00;;;;;;;11.35;4.28;;;31.90;86.40;;;;;;5020262;28;20320;-84
2022/08/16 10:38:26;;;;;;;10.02;4.03;;;31.70;86.60;;;;;;5019931;28;20190;-79
2022/08/16 10:40:53;;;;;;;6.75;4.05;;;31.70;86.70;;;;;;5020052;28;20174;-80
2022/08/16 10:43:19;;;;;;;6.15;4.20;;;31.70;86.70;;;;;;5019708;28;20166;-81
2022/08/16 10:45:47;;;;;;;7.93;4.47;;;32.00;87.60;;;;;;5020571;28;20190;-83
2022/08/16 10:48:13;;;;;;;7.53;4.03;;;32.00;85.70;;;;;;5020842;28;20185;-80
2022/08/16 10:50:39;;;;;;;9.70;4.40;;;31.90;86.40;;;;;;5021081;28;20523;-83
2022/08/16 10:53:05;;;;;;;6.95;4.00;;;32.00;84.70;;;;;;5020096;28;20216;-83
2022/08/16 10:55:36;;;;;;;7.45;3.90;;;33.00;83.90;;;;;;5019815;28;20194;-82
2022/08/16 10:58:07;;;;;;;6.70;3.92;;;32.60;84.20;;;;;;5020098;28;20174;-82
2022/08/16 11:00:34;;;;;;;5.97;3.72;;;32.40;84.70;;;;;;5020832;28;20634;-82
2022/08/16 11:03:02;;;;;;;7.85;4.32;;;32.60;84.20;;;;;;5020690;28;20166;-82
2022/08/16 11:05:30;;;;;;;6.40;3.65;;;32.90;81.20;;;;;;5020360;28;20221;-83
2022/08/16 11:07:56;;;;;;;7.47;3.80;;;33.60;78.50;;;;;;5019605;28;20177;-82
2022/08/16 11:10:33;;;;;;;6.63;3.63;;;34.60;76.50;;;;;;5020363;28;20232;-81
2022/08/16 11:12:58;;;;;;;7.20;3.80;;;34.90;76.00;;;;;;5020825;28;20165;-82
2022/08/16 11:15:24;;;;;;;5.55;3.95;;;35.10;76.20;;;;;;5037750;28;20194;-83
2022/08/16 11:17:52;;;;;;;9.23;4.00;;;33.50;77.50;;;;;;5020256;28;20192;-81
2022/08/16 11:20:18;;;;;;;7.88;4.05;;;32.50;79.00;;;;;;5020473;28;20209;-82
2022/08/16 11:22:46;;;;;;;7.63;4.07;;;33.00;80.20;;;;;;5019686;28;20170;-83
2022/08/16 11:25:13;;;;;;;6.78;3.95;;;33.40;77.80;;;;;;5019970;28;20252;-80
2022/08/16 11:27:39;;;;;;;7.93;3.55;;;32.70;78.60;;;;;;5020701;28;20177;-83
2022/08/16 11:30:08;;;;;;;6.25;4.00;;;32.70;77.70;;;;;;5020035;28;20174;-86
2022/08/16 11:32:34;;;;;;;8.40;3.80;;;32.20;78.90;;;;;;5016927;28;20235;-84
2022/08/16 11:35:07;;;;;;;8.13;3.60;;;32.40;78.70;;;;;;5016649;28;20201;-83
2022/08/16 11:37:33;;;;;;;8.18;4.28;;;32.90;79.60;;;;;;5016686;28;20638;-81
2022/08/16 11:40:00;;;;;;;7.15;4.15;;;32.60;79.20;;;;;;5033745;28;20202;-82
2022/08/16 11:42:26;;;;;;;4.80;3.95;;;32.70;77.70;;;;;;5016103;28;20176;-84
2022/08/16 11:44:52;;;;;;;6.22;3.78;;;33.40;77.10;;;;;;5016919;28;20261;-83
2022/08/16 11:47:18;;;;;;;7.03;3.53;;;32.60;77.90;;;;;;5016520;28;20197;-82
2022/08/16 11:49:44;;;;;;;8.07;3.70;;;32.60;76.70;;;;;;5017036;28;20280;-83
2022/08/16 11:52:10;;;;;;;6.40;4.22;;;32.20;78.40;;;;;;5016960;28;20185;-83
2022/08/16 11:54:36;;;;;;;5.85;3.80;;;31.30;79.50;;;;;;5018149;28;20177;-82
2022/08/16 11:57:02;;;;;;;5.97;3.60;;;31.90;79.60;;;;;;5019036;28;20198;-84
2022/08/16 11:59:28;;;;;;;7.90;4.00;;;32.00;77.70;;;;;;5035135;28;20206;-82
2022/08/16 12:01:55;;;;;;;5.50;3.70;;;32.00;77.20;;;;;;5017482;28;20506;-83
2022/08/16 12:04:22;;;;;;;11.05;4.00;;;32.20;79.20;;;;;;5017350;28;20181;-82
2022/08/16 12:06:48;;;;;;;9.18;3.90;;;32.00;79.10;;;;;;5018593;28;20196;-82
2022/08/16 12:09:14;;;;;;;8.52;3.90;;;33.00;78.60;;;;;;5016843;28;20759;-80
2022/08/16 12:11:40;;;;;;;6.10;4.05;;;32.90;77.00;;;;;;5048292;23;20307;-80
2022/08/16 12:14:06;;;;;;;11.68;3.97;;;33.20;77.40;;;;;;5036050;28;20223;-80
2022/08/16 12:16:34;;;;;;;7.43;4.45;;;32.80;77.40;;;;;;5036059;28;20170;-80
2022/08/16 12:19:01;;;;;;;11.32;3.65;;;32.40;77.20;;;;;;5054229;28;20220;-80
2022/08/16 12:21:26;;;;;;;8.10;4.05;;;32.60;77.40;;;;;;5054277;28;20169;-80
2022/08/16 12:23:52;;;;;;;8.20;3.95;;;32.30;77.50;;;;;;5053903;28;20168;-80
2022/08/16 12:26:18;;;;;;;5.95;3.97;;;32.30;77.10;;;;;;5042234;23;20250;-82
2022/08/16 12:28:44;;;;;;;6.85;4.30;;;31.90;77.30;;;;;;5014377;28;20170;-82
2022/08/16 12:31:09;;;;;;;10.73;4.57;;;32.00;77.50;;;;;;5014403;28;20280;-82
2022/08/16 12:33:35;;;;;;;8.85;4.68;;;31.50;78.20;;;;;;5014519;28;20659;-82
2022/08/16 12:36:00;;;;;;;7.68;4.18;;;30.70;79.70;;;;;;5014412;28;20195;-82
2022/08/16 12:38:27;;;;;;;7.78;4.63;;;30.80;78.80;;;;;;5014283;28;20638;-82
2022/08/16 12:40:53;;;;;;;5.63;4.50;;;30.60;79.30;;;;;;5014153;28;20663;-82